Jay, Oklahoma
Current Conditions -  °F | °C
As of 8:35 AM on Friday 28 Nov 2014 (Local Time) from KGMJ Reporting Station
Clear Clear  
Wind Chill: 39°   Ceiling: Unl
Heat Index: 46°   Visibility: 10mi
Dew Point: 30°   Wind: 18mph
Humidity: 53%   Direction: 190°S
Pressure: 30.13"   Gusts: 23mph
Location:  36.42°N, 94.8°W
Report Text: KGMJ 281435Z AUTO 19016G20KT 10SM CLR 08/M01 A3013 RMK AO2
Loading
Personal Weather Stations






























Interactive Weather Map New forecast layout! Learn more

10-Day Weather Forecast

Advertisements
Track Severe Weather on mobile